This is the latest recevied weather packets stored in our database for station/object WB0VGI-1. If no packets are shown the sender has not sent any weather packets the latest 10 day(s).
| Time | Temp. | Humidity | Pressure | Rain* | Wind** | Luminosity | Snow |
|---|---|---|---|---|---|---|---|
| 1778174826 | 11.67° C | 35% | 1015.4 hPa | 0 mm | - | - | - |
| 1778173626 | 11.67° C | 35% | 1015.6 hPa | 0 mm | - | - | - |
| 1778172425 | 10.56° C | 37% | 1015.8 hPa | 0 mm | - | - | - |
| 1778171225 | 10° C | 39% | 1016.2 hPa | 0 mm | - | - | - |
| 1778170026 | 9.44° C | 41% | 1016.3 hPa | 0 mm | - | - | - |
| 1778168826 | 8.89° C | 41% | 1016.5 hPa | 0 mm | - | - | - |
| 1778167625 | 8.33° C | 45% | 1016.4 hPa | 0 mm | - | - | - |
| 1778166425 | 7.78° C | 47% | 1016.6 hPa | 0 mm | - | - | - |
| 1778165225 | 7.78° C | 48% | 1016.8 hPa | 0 mm | - | - | - |
| 1778164025 | 7.22° C | 50% | 1016.9 hPa | 0 mm | - | - | - |
| 1778162825 | 6.67° C | 52% | 1017.1 hPa | 0 mm | - | - | - |
| 1778161625 | 6.67° C | 56% | 1017.2 hPa | 0 mm | - | - | - |
| 1778160425 | 5.56° C | 61% | 1017.4 hPa | 0 mm | - | - | - |
| 1778159225 | 5° C | 65% | 1017.5 hPa | 0 mm | - | - | - |
| 1778158025 | 3.89° C | 69% | 1017.6 hPa | 0 mm | - | - | - |
| 1778156825 | 2.78° C | 75% | 1017.9 hPa | 0 mm | - | - | - |
| 1778155625 | 2.22° C | 76% | 1017.8 hPa | 0 mm | - | - | - |
| 1778154425 | 2.22° C | 77% | 1017.8 hPa | 0 mm | - | - | - |
| 1778153225 | 2.22° C | 76% | 1017.8 hPa | 0 mm | - | - | - |
| 1778152025 | 2.22° C | 76% | 1017.8 hPa | 0 mm | - | - | - |
| 1778150825 | 2.22° C | 75% | 1017.8 hPa | 0 mm | - | - | - |
| 1778149625 | 2.22° C | 75% | 1017.9 hPa | 0 mm | - | - | - |
| 1778148425 | 2.22° C | 75% | 1017.9 hPa | 0 mm | - | - | - |
| 1778147225 | 2.22° C | 74% | 1018 hPa | 0 mm | - | - | - |
| 1778146025 | 2.78° C | 73% | 1017.9 hPa | 0 mm | - | - | - |
* Rain latest hour (hover to see other rain measurements)
** Current wind speed in m/s (hover to see current wind gust speed)